createdAt,value
2018-08-13T00:08:47.367Z,1.30
2018-08-13T00:18:51.505Z,1.30
2018-08-13T00:28:54.989Z,1.10
2018-08-13T00:38:58.048Z,1.00
2018-08-13T00:49:01.458Z,1.30
2018-08-13T00:59:05.235Z,1.50
2018-08-13T01:09:10.342Z,1.30
2018-08-13T01:19:13.535Z,1.15
2018-08-13T01:29:16.703Z,1.10
2018-08-13T01:39:19.962Z,1.00
2018-08-13T01:49:23.854Z,0.93
2018-08-13T01:59:26.929Z,1.00
2018-08-13T02:09:37.416Z,1.30
2018-08-13T02:19:40.784Z,1.42
2018-08-13T02:29:43.884Z,1.17
2018-08-13T02:39:47.646Z,1.22
2018-08-13T02:49:51.063Z,1.30
2018-08-13T02:59:54.739Z,1.20
2018-08-13T03:09:57.839Z,1.45
2018-08-13T03:20:01.902Z,1.60
2018-08-13T03:30:08.321Z,1.40
2018-08-13T03:40:13.577Z,1.37
2018-08-13T03:50:16.764Z,1.25
2018-08-13T04:00:20.238Z,1.20
2018-08-13T04:10:23.347Z,1.40
2018-08-13T04:20:27.303Z,1.40
2018-08-13T04:30:30.607Z,1.00
2018-08-13T04:40:33.704Z,1.30
2018-08-13T04:50:36.796Z,1.40
2018-08-13T05:00:40.006Z,1.00
2018-08-13T05:10:43.204Z,1.37
2018-08-13T05:20:46.311Z,1.30
2018-08-13T05:30:50.330Z,1.55
2018-08-13T05:40:53.410Z,1.15
2018-08-13T05:50:56.517Z,1.27
2018-08-13T06:00:59.738Z,1.30
2018-08-13T06:11:03.060Z,1.92
2018-08-13T06:21:06.396Z,2.47
2018-08-13T06:31:10.080Z,1.80
2018-08-13T06:41:13.325Z,1.80
2018-08-13T06:51:17.091Z,1.95
2018-08-13T07:01:20.445Z,1.92
2018-08-13T07:11:23.531Z,2.00
2018-08-13T07:21:26.614Z,1.62
2018-08-13T07:31:30.466Z,1.72
2018-08-13T07:41:33.484Z,1.72
2018-08-13T07:51:36.789Z,1.77
2018-08-13T08:01:39.902Z,1.92
2018-08-13T08:11:42.990Z,1.60
2018-08-13T08:21:46.069Z,1.80
2018-08-13T08:31:49.248Z,2.30
2018-08-13T08:41:52.358Z,1.42
2018-08-13T08:51:55.485Z,1.70
2018-08-13T09:01:58.640Z,1.80
2018-08-13T09:12:01.761Z,1.92
2018-08-13T09:22:16.404Z,1.87
2018-08-13T09:32:31.733Z,1.70
2018-08-13T09:42:34.741Z,1.65
2018-08-13T09:52:37.896Z,1.77
2018-08-13T10:02:40.986Z,2.27
2018-08-13T10:12:44.763Z,1.77
2018-08-13T10:22:48.011Z,1.80
2018-08-13T10:32:51.187Z,1.27
2018-08-13T10:42:54.561Z,1.20
2018-08-13T10:52:57.752Z,1.57
2018-08-13T11:03:01.132Z,1.50
2018-08-13T11:13:04.239Z,1.10
2018-08-13T11:23:07.337Z,1.25
2018-08-13T11:33:10.506Z,1.00
2018-08-13T11:43:13.846Z,1.05
2018-08-13T11:53:17.045Z,1.20
2018-08-13T12:03:20.108Z,1.10
2018-08-13T12:13:23.732Z,1.17
2018-08-13T12:23:26.993Z,1.20
2018-08-13T12:33:30.198Z,1.10
2018-08-13T12:43:33.354Z,1.67
2018-08-13T12:53:36.577Z,1.15
2018-08-13T13:03:40.202Z,1.47
2018-08-13T13:13:43.377Z,1.25
2018-08-13T13:23:46.461Z,1.22
2018-08-13T13:33:49.694Z,1.67
2018-08-13T13:43:52.897Z,1.50
2018-08-13T13:53:55.964Z,1.30
2018-08-13T14:03:59.149Z,1.60
2018-08-13T14:14:02.975Z,2.10
2018-08-13T14:24:06.361Z,2.25
2018-08-13T14:34:09.498Z,1.70
2018-08-13T14:44:12.799Z,1.60
2018-08-13T14:54:16.091Z,1.75
2018-08-13T15:04:19.176Z,1.80
2018-08-13T15:14:22.750Z,2.08
2018-08-13T15:24:25.828Z,2.02
2018-08-13T15:34:29.104Z,1.80
2018-08-13T15:44:32.215Z,1.65
2018-08-13T15:54:35.535Z,1.55
2018-08-13T16:04:38.713Z,1.70
2018-08-13T16:14:41.957Z,1.95
2018-08-13T16:24:45.061Z,1.80
2018-08-13T16:34:48.305Z,2.00
2018-08-13T16:44:51.457Z,1.80
2018-08-13T16:54:54.842Z,1.70
2018-08-13T17:04:58.063Z,1.80
2018-08-13T17:15:01.247Z,2.12
2018-08-13T17:25:05.274Z,1.70
2018-08-13T17:35:08.659Z,2.17
2018-08-13T17:45:11.899Z,2.30
2018-08-13T17:55:15.375Z,1.90
2018-08-13T18:05:20.822Z,1.92
2018-08-13T18:15:24.329Z,1.92
2018-08-13T18:25:27.929Z,1.90
2018-08-13T18:35:31.118Z,1.80
2018-08-13T18:45:34.294Z,1.67
2018-08-13T18:55:37.414Z,1.90
2018-08-13T19:05:40.553Z,1.87
2018-08-13T19:15:43.707Z,2.10
2018-08-13T19:25:47.523Z,1.90
2018-08-13T19:35:53.662Z,1.70
2018-08-13T19:45:59.573Z,2.00
2018-08-13T19:56:05.448Z,1.55
2018-08-13T20:06:08.482Z,1.65
2018-08-13T20:16:11.626Z,1.30
2018-08-13T20:26:15.358Z,1.30
2018-08-13T20:36:19.494Z,1.50
2018-08-13T20:46:22.768Z,1.40
2018-08-13T20:56:25.822Z,1.30
2018-08-13T21:06:29.335Z,1.30
2018-08-13T21:16:33.146Z,1.15
2018-08-13T21:26:37.054Z,1.30
2018-08-13T21:36:40.205Z,1.20
2018-08-13T21:46:43.906Z,1.35
2018-08-13T21:56:46.941Z,1.30
2018-08-13T22:06:50.053Z,1.40
2018-08-13T22:16:53.285Z,1.40
2018-08-13T22:26:56.392Z,1.40
2018-08-13T22:37:00.358Z,1.05
2018-08-13T22:47:03.537Z,1.20
2018-08-13T22:57:06.564Z,1.42
2018-08-13T23:07:10.209Z,1.30
2018-08-13T23:17:13.446Z,1.15
2018-08-13T23:27:16.978Z,1.30
2018-08-13T23:37:20.138Z,1.32
2018-08-13T23:47:23.695Z,1.25
2018-08-13T23:57:26.835Z,1.20
